Time;durP1;ratioP1;P1;durP2;ratioP2;P2;SDS_P1;SDS_P2;PMS_P1;PMS_P2;Temp;Humidity;BMP_temperature;BMP_pressure;BME280_temperature;BME280_humidity;BME280_pressure;Samples;Min_cycle;Max_cycle;Signal;HPM_P1;HPM_P2
2021/12/25 00:01:36;;;;;;;21.05;13.23;;;0.70;99.90;;;;;;5035058;28;20164;-73
2021/12/25 00:04:02;;;;;;;21.25;13.07;;;0.70;99.90;;;;;;5035694;28;20030;-73
2021/12/25 00:06:27;;;;;;;20.88;12.55;;;0.70;99.90;;;;;;5035141;28;20029;-74
2021/12/25 00:08:53;;;;;;;21.30;12.13;;;0.70;99.90;;;;;;5034542;28;20033;-74
2021/12/25 00:11:19;;;;;;;23.20;13.15;;;0.70;99.90;;;;;;5034522;28;20029;-74
2021/12/25 00:13:45;;;;;;;19.08;11.75;;;0.70;99.90;;;;;;5035515;28;20099;-74
2021/12/25 00:16:11;;;;;;;21.05;11.10;;;0.70;99.90;;;;;;5035276;28;20029;-74
2021/12/25 00:18:41;;;;;;;18.08;10.93;;;0.70;99.90;;;;;;5036185;28;20040;-74
2021/12/25 00:21:08;;;;;;;19.85;11.13;;;0.70;99.90;;;;;;5036348;28;20420;-74
2021/12/25 00:23:34;;;;;;;25.90;15.68;;;0.60;99.90;;;;;;5033152;28;20153;-74
2021/12/25 00:26:05;;;;;;;23.73;14.65;;;0.70;99.90;;;;;;5034927;28;20052;-74
2021/12/25 00:35:58;;;;;;;19.55;10.23;;;0.70;99.90;;;;;;5036521;28;20026;-74
2021/12/25 00:38:24;;;;;;;18.75;10.18;;;0.70;99.90;;;;;;5035845;28;20036;-74
2021/12/25 00:40:49;;;;;;;16.58;10.00;;;0.70;99.90;;;;;;5035654;28;20079;-74
2021/12/25 00:43:15;;;;;;;17.63;9.95;;;0.70;99.90;;;;;;5036137;28;20096;-74
2021/12/25 00:45:42;;;;;;;15.68;10.25;;;0.70;99.90;;;;;;5035922;28;20049;-74
2021/12/25 00:48:08;;;;;;;16.58;10.63;;;0.70;99.90;;;;;;5035985;28;20504;-74
2021/12/25 00:50:33;;;;;;;14.65;9.07;;;0.70;99.90;;;;;;5035697;28;20022;-74
2021/12/25 00:52:59;;;;;;;14.85;10.18;;;0.70;99.90;;;;;;5035665;28;20481;-74
2021/12/25 00:55:25;;;;;;;15.55;10.40;;;0.70;99.90;;;;;;5034252;28;20029;-74
2021/12/25 00:57:51;;;;;;;24.88;11.88;;;0.70;99.90;;;;;;5020234;28;20036;-74
2021/12/25 01:00:18;;;;;;;21.63;11.32;;;0.70;99.90;;;;;;5034687;28;20037;-74
2021/12/25 01:02:46;;;;;;;18.83;11.35;;;0.70;99.90;;;;;;5032667;28;20113;-75
2021/12/25 01:05:14;;;;;;;19.88;13.52;;;0.70;99.90;;;;;;5035400;28;20488;-75
2021/12/25 01:07:40;;;;;;;19.85;10.32;;;0.70;99.90;;;;;;5033939;28;20033;-76
2021/12/25 01:10:12;;;;;;;13.73;8.95;;;0.80;99.90;;;;;;5035111;28;20037;-76
2021/12/25 01:15:20;;;;;;;13.52;8.23;;;0.80;99.90;;;;;;5015699;28;20030;-77
2021/12/25 01:18:08;;;;;;;13.85;8.07;;;0.80;99.90;;;;;;5015422;28;20026;-77
2021/12/25 01:29:07;;;;;;;14.00;8.63;;;0.80;99.90;;;;;;5033964;28;20108;-76
2021/12/25 01:41:53;;;;;;;19.92;10.90;;;0.90;99.90;;;;;;5033693;28;20377;-75
2021/12/25 01:49:38;;;;;;;16.77;9.75;;;0.90;99.90;;;;;;5035047;28;20028;-75
2021/12/25 01:52:05;;;;;;;18.55;11.52;;;0.90;99.90;;;;;;5033638;28;20091;-76
2021/12/25 01:54:31;;;;;;;16.92;10.32;;;0.80;99.90;;;;;;5034434;28;20029;-76
2021/12/25 01:56:57;;;;;;;18.70;12.02;;;0.80;99.90;;;;;;5033251;28;20044;-76
2021/12/25 01:59:23;;;;;;;16.95;10.07;;;0.80;99.90;;;;;;5032920;28;20047;-76
2021/12/25 02:01:49;;;;;;;17.58;10.07;;;0.80;99.90;;;;;;5032682;28;20438;-75
2021/12/25 02:04:15;;;;;;;21.00;12.70;;;0.80;99.90;;;;;;5033589;28;20034;-76
2021/12/25 02:06:41;;;;;;;17.67;11.82;;;0.80;99.90;;;;;;5032434;28;20068;-76
2021/12/25 02:09:07;;;;;;;20.02;11.15;;;0.80;99.90;;;;;;5034498;28;20033;-76
2021/12/25 02:11:33;;;;;;;14.32;9.15;;;0.80;99.90;;;;;;5033021;28;20079;-76
2021/12/25 02:13:59;;;;;;;16.20;8.90;;;0.80;99.90;;;;;;5033075;28;20033;-76
2021/12/25 02:16:29;;;;;;;15.55;8.68;;;0.90;99.90;;;;;;5033159;28;20033;-76
2021/12/25 02:19:01;;;;;;;13.60;9.02;;;0.80;99.90;;;;;;5034269;28;20452;-76
2021/12/25 02:21:45;;;;;;;;;;;0.80;99.90;;;;;;5032871;28;20025;-77
2021/12/25 02:24:12;;;;;;;17.38;10.00;;;0.80;99.90;;;;;;5034011;28;20332;-77
2021/12/25 02:26:43;;;;;;;17.65;10.77;;;0.80;99.90;;;;;;5031961;28;20132;-76
2021/12/25 02:29:09;;;;;;;20.60;10.60;;;0.80;99.90;;;;;;5016233;28;20036;-77
2021/12/25 02:31:35;;;;;;;22.23;11.80;;;0.80;99.90;;;;;;5031332;28;20033;-77
2021/12/25 02:34:01;;;;;;;17.10;10.15;;;0.80;99.90;;;;;;5033186;28;20086;-76
2021/12/25 02:36:27;;;;;;;17.95;10.82;;;0.70;99.90;;;;;;5032981;28;20486;-76
2021/12/25 02:38:53;;;;;;;23.55;13.20;;;0.70;99.90;;;;;;5032873;28;20040;-76
2021/12/25 02:41:19;;;;;;;14.52;9.45;;;0.70;99.90;;;;;;5032475;28;20061;-76
2021/12/25 02:43:46;;;;;;;13.98;8.60;;;0.70;99.90;;;;;;5033960;28;20017;-76
2021/12/25 02:46:13;;;;;;;18.73;11.70;;;0.70;99.90;;;;;;5030923;28;20017;-76
2021/12/25 02:48:42;;;;;;;16.42;10.73;;;0.70;99.90;;;;;;5032311;28;20021;-76
2021/12/25 02:51:09;;;;;;;17.88;10.93;;;0.70;99.90;;;;;;5031843;28;20071;-77
2021/12/25 02:53:35;;;;;;;16.30;9.98;;;0.70;99.90;;;;;;5033765;28;20036;-76
2021/12/25 02:56:01;;;;;;;18.42;11.40;;;0.70;99.90;;;;;;5032179;28;20110;-77
2021/12/25 02:58:27;;;;;;;17.23;10.23;;;0.70;99.90;;;;;;5033644;28;20101;-76
2021/12/25 03:01:13;;;;;;;15.45;8.63;;;0.70;99.90;;;;;;5032944;28;20030;-76
2021/12/25 03:03:39;;;;;;;18.95;10.30;;;0.70;99.90;;;;;;5013896;28;20048;-76
2021/12/25 03:06:07;;;;;;;15.10;9.02;;;0.70;99.90;;;;;;5013786;28;20588;-76
2021/12/25 03:08:33;;;;;;;14.63;8.68;;;0.60;99.90;;;;;;5032119;28;20037;-76
2021/12/25 03:10:59;;;;;;;13.50;8.00;;;0.60;99.90;;;;;;5032375;28;20037;-76
2021/12/25 03:13:42;;;;;;;15.07;9.85;;;0.60;99.90;;;;;;5033723;28;20365;-76
2021/12/25 03:16:07;;;;;;;16.52;10.60;;;0.70;99.90;;;;;;5032439;28;20018;-76
2021/12/25 03:18:40;;;;;;;23.33;11.68;;;0.70;99.90;;;;;;5032020;28;20052;-76
2021/12/25 03:21:06;;;;;;;17.25;10.48;;;0.70;99.90;;;;;;5014259;28;20116;-77
2021/12/25 03:23:35;;;;;;;17.65;10.52;;;0.70;99.90;;;;;;5015855;28;20595;-76
2021/12/25 03:26:02;;;;;;;18.00;10.75;;;0.70;99.90;;;;;;5032966;28;20424;-76
2021/12/25 03:28:31;;;;;;;18.77;10.52;;;0.70;99.90;;;;;;5037770;28;20052;-76
2021/12/25 03:31:04;;;;;;;18.38;10.77;;;0.70;99.90;;;;;;5035458;28;20017;-76
2021/12/25 03:33:31;;;;;;;15.65;9.98;;;0.70;99.90;;;;;;5034963;28;20572;-76
2021/12/25 03:35:57;;;;;;;17.67;10.35;;;0.70;99.90;;;;;;5036434;28;20025;-76
2021/12/25 03:38:24;;;;;;;17.00;9.80;;;0.60;99.90;;;;;;5037010;28;20029;-76
2021/12/25 03:40:51;;;;;;;19.30;11.07;;;0.60;99.90;;;;;;5035405;28;20104;-77
2021/12/25 03:43:18;;;;;;;17.92;10.77;;;0.60;99.90;;;;;;5035749;28;20104;-76
2021/12/25 03:45:44;;;;;;;16.42;10.43;;;0.60;99.90;;;;;;5035575;28;20028;-76
2021/12/25 03:48:28;;;;;;;16.55;10.70;;;0.60;99.90;;;;;;5035998;28;20033;-77
2021/12/25 03:59:06;;;;;;;10.43;6.30;;;0.60;99.90;;;;;;5036125;28;20032;-76
2021/12/25 04:06:27;;;;;;;11.82;6.75;;;0.60;99.90;;;;;;5034740;28;20033;-76
2021/12/25 04:08:53;;;;;;;10.20;6.13;;;0.60;99.90;;;;;;5036689;28;20049;-76
2021/12/25 04:11:31;;;;;;;10.90;6.57;;;0.50;99.90;;;;;;5034360;28;20033;-77
2021/12/25 04:13:57;;;;;;;9.68;5.68;;;0.50;99.90;;;;;;5037009;28;20018;-76
2021/12/25 04:16:23;;;;;;;9.32;5.70;;;0.50;99.90;;;;;;5035637;28;20065;-76
2021/12/25 04:18:49;;;;;;;8.23;5.40;;;0.50;99.90;;;;;;5036220;28;20481;-76
2021/12/25 04:21:15;;;;;;;8.90;5.20;;;0.50;99.90;;;;;;5035360;28;20370;-77
2021/12/25 04:23:43;;;;;;;8.82;5.35;;;0.50;99.90;;;;;;5035790;28;20104;-76
2021/12/25 04:26:09;;;;;;;10.88;6.07;;;0.50;99.90;;;;;;5033953;28;20025;-77
2021/12/25 05:06:23;;;;;;;12.05;7.07;;;0.40;99.90;;;;;;5020662;28;20035;-76
2021/12/25 05:08:50;;;;;;;10.82;6.90;;;0.40;99.90;;;;;;5033834;28;20018;-76
2021/12/25 05:11:16;;;;;;;12.40;7.43;;;0.40;99.90;;;;;;5026343;28;20033;-76
2021/12/25 05:13:43;;;;;;;11.32;7.32;;;0.40;99.90;;;;;;5033457;28;20021;-76
2021/12/25 05:16:09;;;;;;;10.57;6.55;;;0.40;99.90;;;;;;5033419;28;20128;-76
2021/12/25 05:18:35;;;;;;;10.48;6.50;;;0.40;99.90;;;;;;5030734;28;20109;-77
2021/12/25 05:21:01;;;;;;;8.48;5.95;;;0.40;99.90;;;;;;5031705;28;20025;-77
2021/12/25 05:23:27;;;;;;;11.05;6.40;;;0.40;99.90;;;;;;5029109;28;20280;-77
2021/12/25 05:25:53;;;;;;;8.38;5.45;;;0.40;99.90;;;;;;5030250;28;20101;-77
2021/12/25 05:28:25;;;;;;;8.00;5.20;;;0.40;99.90;;;;;;5012971;28;20026;-77
2021/12/25 05:30:52;;;;;;;9.27;5.68;;;0.40;99.90;;;;;;5021427;28;20470;-76
2021/12/25 05:33:18;;;;;;;7.95;4.78;;;0.40;99.90;;;;;;5034578;28;20478;-77
2021/12/25 05:35:44;;;;;;;40.53;22.02;;;0.40;99.90;;;;;;5034749;28;20508;-76
2021/12/25 05:38:14;;;;;;;31.42;18.83;;;0.40;99.90;;;;;;5032249;28;21423;-76
2021/12/25 05:40:44;;;;;;;32.35;20.65;;;0.40;99.90;;;;;;5034368;28;20477;-76
2021/12/25 05:43:10;;;;;;;28.52;20.08;;;0.40;99.90;;;;;;5034468;28;20021;-76
2021/12/25 05:45:36;;;;;;;20.27;13.80;;;0.40;99.90;;;;;;5034494;28;20034;-76
2021/12/25 05:48:03;;;;;;;17.38;11.60;;;0.40;99.90;;;;;;5033632;28;20029;-75
2021/12/25 05:50:28;;;;;;;17.40;10.85;;;0.40;99.90;;;;;;5034166;28;20056;-75
2021/12/25 05:52:55;;;;;;;13.35;8.18;;;0.40;99.90;;;;;;5033106;28;20481;-75
2021/12/25 05:55:22;;;;;;;12.60;9.68;;;0.40;99.90;;;;;;5031697;28;20112;-74
2021/12/25 05:57:48;;;;;;;12.93;10.68;;;0.50;99.90;;;;;;5032676;28;20151;-75
2021/12/25 06:00:14;;;;;;;10.85;7.90;;;0.50;99.90;;;;;;5034401;28;20029;-75
2021/12/25 06:02:40;;;;;;;12.27;7.60;;;0.50;99.90;;;;;;5031257;28;20504;-75
2021/12/25 06:05:06;;;;;;;11.00;7.07;;;0.50;99.90;;;;;;5033001;28;20034;-74
2021/12/25 06:07:33;;;;;;;16.90;8.90;;;0.50;99.90;;;;;;5030693;28;20034;-74
2021/12/25 06:09:59;;;;;;;15.40;8.65;;;0.50;99.90;;;;;;5029081;28;20105;-74
2021/12/25 06:12:26;;;;;;;14.30;8.50;;;0.50;99.90;;;;;;5027773;28;20481;-74
2021/12/25 06:14:53;;;;;;;11.43;7.70;;;0.50;99.90;;;;;;5033410;28;20021;-73
2021/12/25 06:17:19;;;;;;;13.48;8.20;;;0.60;99.90;;;;;;5031955;28;20026;-73
2021/12/25 06:19:45;;;;;;;13.63;8.05;;;0.60;99.90;;;;;;5033753;28;20393;-73
2021/12/25 06:22:11;;;;;;;14.27;9.40;;;0.50;99.90;;;;;;5033519;28;20603;-73
2021/12/25 06:24:40;;;;;;;18.48;9.38;;;0.50;99.90;;;;;;5031664;28;20048;-73
2021/12/25 06:27:06;;;;;;;13.25;8.05;;;0.60;99.90;;;;;;5033141;28;20030;-73
2021/12/25 06:29:31;;;;;;;13.68;8.23;;;0.60;99.90;;;;;;5033884;28;20045;-73
2021/12/25 06:31:58;;;;;;;13.20;7.95;;;0.60;99.90;;;;;;5030886;28;20397;-73
2021/12/25 06:34:24;;;;;;;12.02;8.63;;;0.60;99.90;;;;;;5033853;28;20390;-74
2021/12/25 06:36:50;;;;;;;12.20;8.25;;;0.70;99.90;;;;;;5031757;28;20032;-73
2021/12/25 06:39:16;;;;;;;13.95;8.90;;;0.70;99.90;;;;;;5033440;28;20029;-73
2021/12/25 06:41:45;;;;;;;12.88;7.80;;;0.70;99.90;;;;;;5032096;28;20024;-73
2021/12/25 06:44:11;;;;;;;13.40;7.38;;;0.80;99.90;;;;;;5030043;28;20505;-74
2021/12/25 06:46:36;;;;;;;12.68;7.75;;;0.80;99.90;;;;;;5031819;28;20017;-74
2021/12/25 06:49:02;;;;;;;16.10;8.07;;;0.80;99.90;;;;;;5024955;28;20482;-74
2021/12/25 06:51:28;;;;;;;19.25;10.70;;;0.80;99.90;;;;;;5027695;28;20033;-75
2021/12/25 06:53:54;;;;;;;18.67;10.70;;;0.90;99.90;;;;;;5026464;28;20026;-74
2021/12/25 06:56:21;;;;;;;17.27;10.50;;;0.90;99.90;;;;;;5032660;28;20425;-74
2021/12/25 06:58:47;;;;;;;17.35;9.85;;;0.90;99.90;;;;;;5025584;28;20034;-75
2021/12/25 07:01:12;;;;;;;14.00;8.27;;;0.90;99.90;;;;;;5011538;28;20029;-74
2021/12/25 07:03:38;;;;;;;13.10;9.10;;;0.80;99.90;;;;;;5031697;28;20440;-74
2021/12/25 07:06:04;;;;;;;12.48;7.55;;;0.80;99.90;;;;;;5031761;28;20417;-74
2021/12/25 07:08:30;;;;;;;13.07;7.85;;;0.80;99.90;;;;;;5031697;28;20025;-74
2021/12/25 07:10:55;;;;;;;16.45;8.60;;;0.80;99.90;;;;;;5032149;28;20029;-74
2021/12/25 07:13:21;;;;;;;17.33;8.57;;;0.70;99.90;;;;;;5032816;28;20496;-73
2021/12/25 07:15:47;;;;;;;13.85;8.02;;;0.80;99.90;;;;;;5031780;28;20095;-74
2021/12/25 07:18:14;;;;;;;10.50;6.50;;;0.80;99.90;;;;;;5031108;28;20021;-74
2021/12/25 07:20:40;;;;;;;16.10;7.90;;;0.80;99.90;;;;;;5031514;28;20057;-74
2021/12/25 07:23:06;;;;;;;9.30;6.82;;;0.80;99.90;;;;;;5027391;28;20116;-73
2021/12/25 07:25:32;;;;;;;10.65;5.97;;;0.80;99.90;;;;;;5013668;28;20493;-73
2021/12/25 07:27:57;;;;;;;11.35;5.65;;;0.70;99.90;;;;;;5025813;28;20064;-73
2021/12/25 07:30:23;;;;;;;10.15;6.22;;;0.70;99.90;;;;;;5033218;28;20067;-74
2021/12/25 07:32:49;;;;;;;10.45;6.03;;;0.70;99.90;;;;;;5033497;28;20029;-73
2021/12/25 07:35:15;;;;;;;10.43;6.28;;;0.70;99.90;;;;;;5033379;28;20164;-73
2021/12/25 07:37:41;;;;;;;8.95;5.45;;;0.70;99.90;;;;;;5033165;28;20029;-74
2021/12/25 07:40:09;;;;;;;9.07;5.18;;;0.70;99.90;;;;;;5031867;28;20416;-73
2021/12/25 07:42:35;;;;;;;10.05;6.57;;;0.70;99.90;;;;;;5033641;28;20017;-73
2021/12/25 07:45:05;;;;;;;11.50;6.45;;;0.70;99.90;;;;;;5033039;28;20120;-73
2021/12/25 07:47:33;;;;;;;11.05;7.20;;;0.70;99.90;;;;;;5033417;28;20060;-73
2021/12/25 07:49:59;;;;;;;13.55;7.72;;;0.70;99.90;;;;;;5033121;28;20033;-73
2021/12/25 07:52:26;;;;;;;13.65;9.20;;;0.70;99.90;;;;;;5032852;28;20534;-73
2021/12/25 07:54:52;;;;;;;12.00;7.65;;;0.60;99.90;;;;;;5032922;28;20067;-73
2021/12/25 07:57:18;;;;;;;18.05;10.00;;;0.60;99.90;;;;;;5032069;28;20121;-74
2021/12/25 07:59:44;;;;;;;17.77;10.32;;;0.60;99.90;;;;;;5030930;28;20096;-74
2021/12/25 08:02:10;;;;;;;18.40;11.77;;;0.60;99.90;;;;;;5031895;28;20071;-73
2021/12/25 08:04:35;;;;;;;40.92;20.42;;;0.60;99.90;;;;;;5032407;28;20131;-73
2021/12/25 08:07:01;;;;;;;66.35;35.47;;;0.60;99.90;;;;;;5031746;28;20018;-73
2021/12/25 08:09:31;;;;;;;54.97;28.00;;;0.60;99.90;;;;;;5032256;28;20493;-73
2021/12/25 08:11:59;;;;;;;38.42;21.20;;;0.60;99.90;;;;;;5032836;28;20119;-73
2021/12/25 08:14:27;;;;;;;22.40;13.25;;;0.60;99.90;;;;;;5036300;28;20029;-73
2021/12/25 08:16:58;;;;;;;18.67;11.38;;;0.60;99.90;;;;;;5036093;28;20374;-73
2021/12/25 08:19:24;;;;;;;20.50;13.63;;;0.70;99.90;;;;;;5036149;28;20520;-73
2021/12/25 08:21:50;;;;;;;13.95;8.48;;;0.70;99.90;;;;;;5036554;28;20027;-73
2021/12/25 08:24:17;;;;;;;12.48;6.10;;;0.70;99.90;;;;;;5036035;28;20485;-73
2021/12/25 08:26:44;;;;;;;12.50;6.57;;;0.80;99.90;;;;;;5016618;28;20097;-72
2021/12/25 08:29:10;;;;;;;19.02;10.20;;;0.80;99.90;;;;;;5016489;28;20029;-73
2021/12/25 08:31:36;;;;;;;13.50;8.10;;;0.90;99.90;;;;;;5030007;28;20120;-73
2021/12/25 08:34:03;;;;;;;14.43;8.82;;;0.90;99.90;;;;;;5036455;28;20079;-73
2021/12/25 08:36:29;;;;;;;12.88;8.70;;;0.80;99.90;;;;;;5035871;28;20033;-73
2021/12/25 08:38:54;;;;;;;17.48;9.95;;;0.90;99.90;;;;;;5035187;28;20029;-73
2021/12/25 08:41:22;;;;;;;14.80;8.73;;;0.80;99.90;;;;;;5036069;28;20474;-73
2021/12/25 08:43:49;;;;;;;13.00;8.57;;;0.90;99.90;;;;;;5035698;28;20025;-73
2021/12/25 08:46:19;;;;;;;18.08;9.65;;;0.90;99.90;;;;;;5035690;28;20025;-73
2021/12/25 08:48:46;;;;;;;15.40;9.18;;;1.00;99.90;;;;;;5035411;28;20029;-73
2021/12/25 08:51:13;;;;;;;14.80;8.48;;;1.00;99.90;;;;;;5035607;28;20025;-73
2021/12/25 08:53:39;;;;;;;15.27;7.97;;;1.10;99.90;;;;;;5035325;28;20037;-73
2021/12/25 08:56:05;;;;;;;14.95;8.82;;;1.10;99.90;;;;;;5035402;28;20040;-73
2021/12/25 08:58:31;;;;;;;15.27;8.73;;;1.20;99.90;;;;;;5035290;28;20122;-73
2021/12/25 09:01:01;;;;;;;12.45;7.28;;;1.20;99.90;;;;;;5032515;28;20234;-73
2021/12/25 09:03:28;;;;;;;12.23;7.38;;;1.20;99.90;;;;;;5024627;28;20033;-72
2021/12/25 09:05:59;;;;;;;12.68;7.32;;;1.30;99.90;;;;;;5034166;28;20038;-72
2021/12/25 09:08:25;;;;;;;13.50;7.30;;;1.30;99.90;;;;;;5030358;28;20032;-73
2021/12/25 09:10:52;;;;;;;9.85;6.57;;;1.40;99.90;;;;;;5033868;28;20037;-73
2021/12/25 09:13:18;;;;;;;10.00;6.57;;;1.40;99.90;;;;;;5035286;28;20029;-72
2021/12/25 09:15:44;;;;;;;19.50;11.85;;;1.40;99.90;;;;;;5035344;28;20473;-72
2021/12/25 09:18:09;;;;;;;23.02;13.18;;;1.50;99.90;;;;;;5017780;28;20075;-72
2021/12/25 09:20:36;;;;;;;22.52;12.68;;;1.60;99.90;;;;;;5029794;28;20191;-73
2021/12/25 09:23:02;;;;;;;24.05;12.93;;;1.60;99.90;;;;;;5033086;28;20017;-74
2021/12/25 09:25:28;;;;;;;18.45;11.63;;;1.60;99.90;;;;;;5025929;28;20025;-73
2021/12/25 09:27:53;;;;;;;23.45;12.50;;;1.60;99.90;;;;;;5020013;28;20080;-71
2021/12/25 09:30:21;;;;;;;21.65;12.18;;;1.60;99.90;;;;;;5013925;28;20052;-71
2021/12/25 09:32:47;;;;;;;26.63;14.02;;;1.60;99.90;;;;;;5015464;28;20367;-71
2021/12/25 09:35:13;;;;;;;22.50;11.27;;;1.60;99.90;;;;;;5015419;28;20025;-71
2021/12/25 09:37:39;;;;;;;22.55;13.98;;;1.60;99.90;;;;;;5020778;28;20032;-72
2021/12/25 09:40:07;;;;;;;21.83;13.60;;;1.70;99.90;;;;;;5034286;28;20378;-72
2021/12/25 09:42:34;;;;;;;28.25;14.20;;;1.70;99.90;;;;;;5034328;28;20025;-72
2021/12/25 09:44:59;;;;;;;23.45;12.75;;;1.80;99.90;;;;;;5034703;28;20021;-72
2021/12/25 09:47:25;;;;;;;21.25;13.27;;;1.80;99.90;;;;;;5034729;28;20028;-72
2021/12/25 09:49:51;;;;;;;22.67;13.60;;;1.90;99.90;;;;;;5034338;28;20036;-72
2021/12/25 09:52:17;;;;;;;21.60;11.50;;;1.90;99.90;;;;;;5034649;28;20048;-71
2021/12/25 09:54:43;;;;;;;19.75;12.93;;;2.00;99.90;;;;;;5034374;28;20034;-72
2021/12/25 09:57:09;;;;;;;21.17;12.57;;;2.00;99.90;;;;;;5034756;28;20032;-72
2021/12/25 09:59:36;;;;;;;22.77;13.63;;;2.10;99.90;;;;;;5035180;28;20458;-72
2021/12/25 10:02:02;;;;;;;23.13;14.00;;;2.10;99.90;;;;;;5034460;28;20028;-72
2021/12/25 10:04:36;;;;;;;23.88;13.68;;;2.20;99.90;;;;;;5032971;28;20063;-72
2021/12/25 10:07:27;;;;;;;23.30;13.07;;;2.20;99.90;;;;;;5034555;28;20482;-72
2021/12/25 10:10:13;;;;;;;21.85;12.82;;;2.20;99.90;;;;;;5025280;28;20121;-72
2021/12/25 10:12:43;;;;;;;22.05;12.48;;;2.20;99.90;;;;;;5034529;28;20053;-72
2021/12/25 10:15:18;;;;;;;15.07;9.17;;;2.30;99.90;;;;;;5034474;28;20105;-72
2021/12/25 10:17:48;;;;;;;22.42;10.50;;;2.40;99.90;;;;;;5034341;28;20026;-72
2021/12/25 10:20:22;;;;;;;17.48;10.68;;;2.50;99.90;;;;;;5034426;28;20064;-72
2021/12/25 10:23:14;;;;;;;23.17;14.40;;;2.50;99.90;;;;;;5034159;28;20133;-72
2021/12/25 10:25:48;;;;;;;30.10;16.17;;;2.60;99.90;;;;;;5033983;28;20080;-72
2021/12/25 10:28:20;;;;;;;25.83;14.20;;;2.70;99.90;;;;;;5032693;28;20026;-72
2021/12/25 10:31:01;;;;;;;19.95;12.35;;;2.70;99.90;;;;;;5034594;28;20384;-72
2021/12/25 10:33:30;;;;;;;15.27;10.00;;;2.70;99.90;;;;;;5034178;28;20112;-72
2021/12/25 10:35:58;;;;;;;12.73;9.32;;;2.70;99.90;;;;;;5033827;28;20104;-72
2021/12/25 10:38:24;;;;;;;13.93;8.95;;;2.70;99.90;;;;;;5033552;28;20029;-72
2021/12/25 10:41:22;;;;;;;10.70;7.40;;;2.70;99.90;;;;;;5033782;28;20036;-72
2021/12/25 10:43:52;;;;;;;15.85;8.98;;;2.80;99.90;;;;;;5034030;28;20091;-72
2021/12/25 10:46:19;;;;;;;16.43;9.40;;;2.80;99.90;;;;;;5033672;28;20018;-72
2021/12/25 10:48:45;;;;;;;14.55;9.57;;;2.80;99.90;;;;;;5032399;28;20703;-72
2021/12/25 10:51:30;;;;;;;14.55;9.57;;;2.80;99.90;;;;;;5033915;28;20083;-72
2021/12/25 10:53:58;;;;;;;14.70;9.07;;;2.90;99.90;;;;;;5033657;28;20540;-72
2021/12/25 10:56:35;;;;;;;14.40;9.43;;;2.90;99.90;;;;;;5033727;28;20028;-72
2021/12/25 10:59:14;;;;;;;15.45;8.60;;;3.00;99.90;;;;;;5033787;28;20112;-72
2021/12/25 11:01:46;;;;;;;15.45;9.23;;;3.00;99.90;;;;;;5033820;28;20053;-72
2021/12/25 11:04:39;;;;;;;14.70;8.18;;;3.00;99.90;;;;;;5032197;28;20049;-73
2021/12/25 11:07:15;;;;;;;13.63;8.57;;;3.10;99.90;;;;;;5031599;28;20097;-73
2021/12/25 11:10:07;;;;;;;14.63;8.55;;;3.10;99.90;;;;;;5031714;28;20017;-73
2021/12/25 11:12:34;;;;;;;16.08;9.25;;;3.20;99.90;;;;;;5032785;28;20028;-73
2021/12/25 11:15:16;;;;;;;17.70;9.73;;;3.20;99.90;;;;;;5033613;28;20018;-74
2021/12/25 11:17:49;;;;;;;13.70;7.95;;;3.20;99.90;;;;;;5031196;28;20067;-74
2021/12/25 11:20:22;;;;;;;16.30;9.25;;;3.30;99.90;;;;;;5033214;28;20021;-74
2021/12/25 11:22:51;;;;;;;18.10;10.48;;;3.30;99.90;;;;;;5032309;28;20112;-73
2021/12/25 11:25:19;;;;;;;18.27;10.75;;;3.30;99.90;;;;;;5033485;28;20036;-74
2021/12/25 11:27:45;;;;;;;16.65;10.38;;;3.30;99.90;;;;;;5033064;28;20363;-74
2021/12/25 11:30:12;;;;;;;16.33;10.60;;;3.30;99.90;;;;;;5031931;28;20055;-74
2021/12/25 11:32:38;;;;;;;14.75;9.05;;;3.40;99.90;;;;;;5032707;28;20026;-74
2021/12/25 11:35:03;;;;;;;15.98;10.23;;;3.40;99.90;;;;;;5033114;28;20036;-74
2021/12/25 11:37:29;;;;;;;17.02;9.63;;;3.60;99.90;;;;;;5032225;28;20108;-75
2021/12/25 11:39:55;;;;;;;12.77;7.65;;;3.70;99.90;;;;;;5031590;28;20033;-75
2021/12/25 11:42:24;;;;;;;12.88;7.72;;;3.80;99.90;;;;;;5033187;28;20029;-75
2021/12/25 11:44:55;;;;;;;14.85;7.68;;;3.90;99.90;;;;;;5033060;28;20071;-75
2021/12/25 11:47:50;;;;;;;12.60;8.13;;;3.90;99.90;;;;;;5034580;28;20041;-74
2021/12/25 11:50:20;;;;;;;12.82;7.95;;;4.10;99.90;;;;;;5035486;28;20260;-75
2021/12/25 11:58:49;;;;;;;17.13;10.60;;;4.20;99.90;;;;;;5037395;28;20488;-74
2021/12/25 12:01:30;;;;;;;18.23;9.93;;;4.20;99.90;;;;;;5035590;28;20053;-75
2021/12/25 12:04:25;;;;;;;19.52;10.38;;;4.20;99.90;;;;;;5036791;28;20025;-75
2021/12/25 12:06:53;;;;;;;16.20;10.35;;;4.10;99.90;;;;;;5058075;23;20140;-80
2021/12/25 12:09:22;;;;;;;21.05;11.35;;;4.10;99.90;;;;;;5057081;28;20103;-80
2021/12/25 12:12:14;;;;;;;18.70;10.93;;;4.00;99.90;;;;;;5057191;28;20029;-80
2021/12/25 12:14:40;;;;;;;22.23;12.82;;;4.00;99.90;;;;;;5055721;28;20029;-80
2021/12/25 12:17:31;;;;;;;23.63;13.18;;;3.90;99.90;;;;;;5058079;28;20032;-81
2021/12/25 12:20:01;;;;;;;17.88;12.10;;;3.90;99.90;;;;;;5058805;28;20143;-81
2021/12/25 12:22:35;;;;;;;26.02;13.07;;;3.80;99.90;;;;;;5057955;28;20021;-81
2021/12/25 12:27:38;;;;;;;18.13;11.70;;;3.80;99.90;;;;;;5057244;28;20025;-80
2021/12/25 12:30:07;;;;;;;20.40;11.45;;;3.80;99.90;;;;;;5057581;28;20029;-81
2021/12/25 12:32:37;;;;;;;20.40;11.85;;;3.80;99.90;;;;;;5055960;28;20090;-81
2021/12/25 12:35:29;;;;;;;18.42;11.98;;;3.80;99.90;;;;;;5057335;28;20098;-81
2021/12/25 12:38:14;;;;;;;;;;;3.70;99.90;;;;;;5057549;28;20017;-81
2021/12/25 12:40:40;;;;;;;18.60;12.18;;;3.60;99.90;;;;;;5057045;28;19909;-81
2021/12/25 12:43:06;;;;;;;20.52;11.68;;;3.60;99.90;;;;;;5057432;28;20024;-81
2021/12/25 12:45:36;;;;;;;17.73;11.00;;;3.60;99.90;;;;;;5057390;28;20393;-81
2021/12/25 12:48:14;;;;;;;20.90;12.27;;;3.70;99.90;;;;;;5057190;28;20049;-81
2021/12/25 12:50:46;;;;;;;18.75;11.45;;;3.80;99.90;;;;;;5057699;28;20025;-81
2021/12/25 12:53:13;;;;;;;18.77;12.52;;;3.80;99.90;;;;;;5057598;28;20404;-81
2021/12/25 12:55:42;;;;;;;19.00;12.00;;;3.80;99.90;;;;;;5057967;28;20385;-80
2021/12/25 12:58:26;;;;;;;21.85;13.13;;;3.80;99.90;;;;;;5057245;28;20025;-80
2021/12/25 13:00:57;;;;;;;17.77;11.48;;;3.80;99.90;;;;;;5056377;28;20021;-81
2021/12/25 13:03:25;;;;;;;21.75;13.15;;;3.80;99.90;;;;;;5057728;28;20025;-81
2021/12/25 13:06:04;;;;;;;30.67;15.85;;;3.80;99.90;;;;;;5057186;28;20043;-81
2021/12/25 13:08:33;;;;;;;27.60;16.10;;;3.80;99.90;;;;;;5057371;28;20051;-81
2021/12/25 13:11:10;;;;;;;24.90;14.07;;;3.90;99.90;;;;;;5056496;28;20043;-81
2021/12/25 13:13:40;;;;;;;18.80;12.77;;;4.00;99.90;;;;;;5056403;28;20100;-81
2021/12/25 13:16:11;;;;;;;21.48;12.75;;;4.00;99.90;;;;;;5056337;28;20025;-82
2021/12/25 13:18:39;;;;;;;;;;;4.10;99.90;;;;;;5056241;28;20025;-81
2021/12/25 13:21:10;;;;;;;16.80;10.07;;;4.20;99.90;;;;;;5056088;28;19948;-82
2021/12/25 13:23:48;;;;;;;17.70;10.95;;;4.20;99.90;;;;;;5055965;28;20096;-82
2021/12/25 13:26:15;;;;;;;17.98;11.45;;;4.20;99.90;;;;;;5054582;28;20112;-82
2021/12/25 13:28:44;;;;;;;15.93;9.98;;;4.20;99.90;;;;;;5054172;28;20025;-82
2021/12/25 13:31:18;;;;;;;16.10;8.27;;;4.20;99.90;;;;;;5056203;28;20024;-82
2021/12/25 13:34:13;;;;;;;15.80;9.30;;;4.10;99.90;;;;;;5056804;28;20079;-82
2021/12/25 13:36:40;;;;;;;15.07;9.48;;;4.20;99.90;;;;;;5054130;28;20455;-82
2021/12/25 13:39:12;;;;;;;17.25;10.75;;;4.10;99.90;;;;;;5056197;28;20021;-83
2021/12/25 13:41:50;;;;;;;19.95;11.80;;;4.10;99.90;;;;;;5058550;28;20380;-83
2021/12/25 13:44:27;;;;;;;20.95;11.13;;;4.00;99.90;;;;;;5058523;28;20107;-83
2021/12/25 13:46:57;;;;;;;19.08;11.32;;;3.80;99.90;;;;;;5058844;28;20023;-83
2021/12/25 13:49:36;;;;;;;20.35;11.75;;;3.70;99.90;;;;;;5057724;28;20029;-83
2021/12/25 13:52:09;;;;;;;19.92;12.52;;;3.70;99.90;;;;;;5059837;28;20121;-83
2021/12/25 13:54:37;;;;;;;18.77;11.95;;;3.60;99.90;;;;;;5057068;28;20163;-82
2021/12/25 13:57:04;;;;;;;19.05;11.63;;;3.60;99.90;;;;;;5056214;28;20028;-82
2021/12/25 13:59:30;;;;;;;17.60;11.07;;;3.60;99.90;;;;;;5057110;28;20021;-82
2021/12/25 14:02:02;;;;;;;25.38;12.95;;;3.60;99.90;;;;;;5057113;28;20025;-82
2021/12/25 14:04:28;;;;;;;25.42;14.35;;;3.60;99.90;;;;;;5058407;28;20380;-82
2021/12/25 14:06:54;;;;;;;23.92;13.30;;;3.60;99.90;;;;;;5057806;28;20058;-82
2021/12/25 14:09:20;;;;;;;20.20;12.07;;;3.50;99.90;;;;;;5057471;28;20028;-82
2021/12/25 14:11:51;;;;;;;21.38;13.13;;;3.50;99.90;;;;;;5058163;28;20056;-82
2021/12/25 14:14:21;;;;;;;28.75;15.98;;;3.50;99.90;;;;;;5057643;28;20070;-82
2021/12/25 14:16:47;;;;;;;24.50;14.00;;;3.50;99.90;;;;;;5057405;28;20064;-82
2021/12/25 14:19:13;;;;;;;25.33;14.43;;;3.60;99.90;;;;;;5057140;28;20021;-82
2021/12/25 14:21:50;;;;;;;25.08;13.80;;;3.60;99.90;;;;;;5067039;28;20091;-82
2021/12/25 14:24:16;;;;;;;27.63;16.10;;;3.60;99.90;;;;;;5058307;28;20465;-82
2021/12/25 14:26:42;;;;;;;25.98;15.63;;;3.50;99.90;;;;;;5059059;28;20067;-83